Time;durP1;ratioP1;P1;durP2;ratioP2;P2;SDS_P1;SDS_P2;PMS_P1;PMS_P2;Temp;Humidity;BMP_temperature;BMP_pressure;BME280_temperature;BME280_humidity;BME280_pressure;Samples;Min_cycle;Max_cycle;Signal;HPM_P1;HPM_P2
2023/03/24 00:00:22;;;;;;;4.90;2.77;;;11.00;99.90;;;10.28;80.43;99608.06;4975912;28;20200;-73
2023/03/24 00:03:00;;;;;;;4.37;2.67;;;10.90;99.90;;;10.28;80.68;99609.91;4975885;28;20590;-73
2023/03/24 00:05:33;;;;;;;3.83;2.60;;;10.90;99.90;;;10.27;80.66;99606.44;4975876;28;20795;-74
2023/03/24 00:08:05;;;;;;;5.93;2.70;;;10.90;99.90;;;10.26;80.88;99610.09;4975847;28;20665;-73
2023/03/24 00:10:41;;;;;;;3.17;2.50;;;10.90;99.90;;;10.24;81.23;99612.13;4976082;28;20197;-73
2023/03/24 00:13:13;;;;;;;5.10;2.60;;;10.90;99.90;;;10.24;81.31;99609.44;4975950;28;20209;-73
2023/03/24 00:15:47;;;;;;;3.67;2.77;;;10.90;99.90;;;10.25;81.36;99607.59;4975891;28;20229;-73
2023/03/24 00:18:24;;;;;;;3.43;2.83;;;10.90;99.90;;;10.24;81.26;99606.78;4975597;28;20633;-73
2023/03/24 00:20:57;;;;;;;4.10;2.87;;;10.90;99.90;;;10.25;81.31;99599.59;4975870;28;20196;-73
2023/03/24 00:23:31;;;;;;;3.77;2.37;;;10.90;99.90;;;10.26;81.33;99593.22;4975819;28;20189;-73
2023/03/24 00:26:07;;;;;;;4.23;2.30;;;10.90;99.90;;;10.25;81.37;99592.38;4975673;28;20228;-74
2023/03/24 00:28:41;;;;;;;3.80;2.50;;;10.90;99.90;;;10.25;81.55;99589.72;4975353;28;20270;-73
2023/03/24 00:31:14;;;;;;;6.00;3.17;;;10.90;99.90;;;10.26;81.13;99586.03;4975643;28;20197;-73
2023/03/24 00:33:50;;;;;;;4.13;2.50;;;10.90;99.90;;;10.27;80.98;99589.53;4975369;28;20591;-73
2023/03/24 00:36:25;;;;;;;3.57;2.70;;;10.90;99.90;;;10.25;81.50;99587.03;4975531;28;20599;-73
2023/03/24 00:38:59;;;;;;;4.37;2.80;;;10.90;99.90;;;10.26;81.33;99588.72;4975219;28;20200;-73
2023/03/24 00:41:30;;;;;;;4.17;2.60;;;10.90;99.90;;;10.28;81.72;99589.34;4975493;28;20197;-73
2023/03/24 00:44:06;;;;;;;5.53;2.43;;;10.90;99.90;;;10.33;81.06;99578.91;4975444;28;20197;-74
2023/03/24 00:46:38;;;;;;;4.40;2.60;;;11.00;99.90;;;10.43;80.64;99574.09;4975340;28;20232;-72
2023/03/24 00:49:14;;;;;;;3.40;2.53;;;11.10;99.90;;;10.51;80.99;99571.31;4975377;28;20204;-73
2023/03/24 00:51:46;;;;;;;5.70;2.67;;;11.20;99.90;;;10.46;81.29;99557.66;4974954;28;20220;-74
2023/03/24 00:54:20;;;;;;;3.57;2.63;;;11.10;99.90;;;10.52;81.08;99556.91;4975309;28;20226;-73
2023/03/24 00:56:54;;;;;;;4.07;2.50;;;11.20;99.90;;;10.62;80.87;99554.75;4974997;28;20658;-74
2023/03/24 00:59:28;;;;;;;3.70;2.70;;;11.30;99.90;;;10.58;81.70;99548.13;4975243;28;20236;-73
2023/03/24 01:02:00;;;;;;;6.27;2.67;;;11.20;99.90;;;10.63;81.51;99548.41;4975236;28;20201;-73
2023/03/24 01:04:34;;;;;;;4.40;3.23;;;11.30;99.90;;;10.63;81.70;99529.66;4975153;28;20276;-74
2023/03/24 01:07:09;;;;;;;4.00;2.60;;;11.30;99.90;;;10.62;81.90;99536.03;4974668;28;20259;-73
2023/03/24 01:09:41;;;;;;;6.37;2.97;;;11.20;99.90;;;10.57;82.17;99535.78;4975052;28;20195;-73
2023/03/24 01:12:13;;;;;;;5.60;3.37;;;11.20;99.90;;;10.58;82.09;99529.38;4974991;28;20264;-73
2023/03/24 01:14:46;;;;;;;8.10;3.47;;;11.20;99.90;;;10.59;82.17;99525.69;4974672;28;20232;-72
2023/03/24 01:17:21;;;;;;;7.40;3.50;;;11.20;99.90;;;10.62;82.48;99519.13;4974711;28;20204;-72
2023/03/24 01:19:55;;;;;;;5.10;3.20;;;11.20;99.90;;;10.61;82.68;99512.97;4974663;28;20641;-73
2023/03/24 01:22:30;;;;;;;5.30;3.50;;;11.20;99.90;;;10.59;83.04;99515.00;4974901;28;20247;-73
2023/03/24 01:25:03;;;;;;;4.83;3.17;;;11.20;99.90;;;10.60;83.03;99511.31;4974871;28;20236;-73
2023/03/24 01:27:35;;;;;;;4.83;3.13;;;11.20;99.90;;;10.71;82.66;99506.47;4974459;28;20700;-73
2023/03/24 01:30:11;;;;;;;6.57;3.63;;;11.30;99.90;;;10.65;83.20;99498.16;4974551;28;20193;-73
2023/03/24 01:32:43;;;;;;;4.80;2.93;;;11.30;99.90;;;10.61;83.18;99494.25;4974767;28;20237;-73
2023/03/24 01:35:18;;;;;;;4.47;3.37;;;11.30;99.90;;;10.62;83.19;99487.84;4975172;28;20244;-73
2023/03/24 01:37:51;;;;;;;4.23;3.07;;;11.30;99.90;;;10.60;83.83;99481.03;4974743;28;20188;-73
2023/03/24 01:40:28;;;;;;;3.97;3.40;;;11.30;99.90;;;10.59;83.37;99482.88;4974730;28;20197;-73
2023/03/24 01:43:02;;;;;;;5.07;3.67;;;11.30;99.90;;;10.57;83.65;99479.56;4974721;28;20193;-73
2023/03/24 01:46:12;;;;;;;5.37;3.10;;;11.20;99.90;;;10.59;83.66;99477.53;4974607;28;20262;-73
2023/03/24 01:48:50;;;;;;;5.10;3.03;;;11.20;99.90;;;10.63;83.39;99465.44;4974698;28;20207;-73
2023/03/24 01:51:29;;;;;;;3.83;3.37;;;11.30;99.90;;;10.72;83.88;99465.31;4974668;28;20197;-72
2023/03/24 01:54:07;;;;;;;4.37;3.20;;;11.30;99.90;;;10.67;83.95;99456.00;4974533;28;20212;-72
2023/03/24 01:56:45;;;;;;;6.60;3.50;;;11.30;99.90;;;10.65;84.06;99451.88;4974469;28;20228;-73
2023/03/24 01:59:24;;;;;;;5.37;3.50;;;11.30;99.90;;;10.73;83.75;99446.34;4974600;28;20228;-73
2023/03/24 02:02:01;;;;;;;5.03;3.20;;;11.40;99.90;;;10.68;84.14;99444.25;4975114;28;20252;-73
2023/03/24 02:04:37;;;;;;;4.80;3.17;;;11.30;99.90;;;10.75;84.12;99443.50;4974193;28;20188;-73
2023/03/24 02:07:20;;;;;;;4.37;3.07;;;11.30;99.90;;;10.67;84.38;99431.91;4974656;28;20196;-73
2023/03/24 02:09:52;;;;;;;4.97;3.03;;;11.30;99.90;;;10.68;84.53;99433.53;4974547;28;20189;-73
2023/03/24 02:12:24;;;;;;;5.13;3.13;;;11.30;99.90;;;10.71;84.54;99421.66;4974407;28;20213;-74
2023/03/24 02:14:55;;;;;;;4.33;3.40;;;11.30;99.90;;;10.72;84.54;99417.13;4974400;28;20233;-73
2023/03/24 02:17:53;;;;;;;5.30;3.10;;;11.30;99.90;;;10.75;84.64;99411.38;4974456;28;20205;-73
2023/03/24 02:21:34;;;;;;;5.00;2.67;;;11.40;99.90;;;10.72;84.77;99409.09;4977187;28;20244;-73
2023/03/24 02:25:11;;;;;;;3.10;2.77;;;11.40;99.90;;;10.79;84.34;99402.75;4968870;28;20208;-73
2023/03/24 02:28:04;;;;;;;4.60;2.83;;;11.40;99.90;;;10.74;84.97;99393.66;4915295;29;20215;-73
2023/03/24 02:31:24;;;;;;;3.27;2.67;;;11.40;99.90;;;10.78;84.46;99387.72;4974859;28;20303;-73
2023/03/24 02:34:54;;;;;;;2.80;2.50;;;11.40;99.90;;;10.78;84.83;99381.53;4974649;28;20623;-73
2023/03/24 02:38:02;;;;;;;3.90;2.73;;;11.40;99.90;;;10.75;84.32;99384.59;4977741;28;20209;-73
2023/03/24 02:40:39;;;;;;;3.17;2.87;;;11.40;99.90;;;10.75;84.83;99374.72;4977743;28;20204;-73
2023/03/24 02:43:44;;;;;;;3.80;3.10;;;11.40;99.90;;;10.76;84.81;99384.41;4977709;28;20185;-73
2023/03/24 02:46:24;;;;;;;4.10;2.93;;;11.40;99.90;;;10.74;84.77;99372.25;4971028;28;20229;-74
2023/03/24 02:49:19;;;;;;;3.17;2.60;;;11.40;99.90;;;10.72;84.78;99374.28;4977291;28;20193;-73
2023/03/24 02:52:03;;;;;;;3.50;2.80;;;11.30;99.90;;;10.72;84.95;99363.59;4977539;28;20190;-74
2023/03/24 02:54:47;;;;;;;3.10;2.80;;;11.40;99.90;;;10.71;85.24;99359.25;4977331;28;20219;-74
2023/03/24 02:57:30;;;;;;;3.53;2.70;;;11.40;99.90;;;10.68;85.14;99355.91;4977560;28;20200;-74
2023/03/24 03:00:12;;;;;;;2.97;2.47;;;11.30;99.90;;;10.69;85.08;99360.25;4977610;28;20193;-73
2023/03/24 03:02:52;;;;;;;3.40;3.10;;;11.30;99.90;;;10.68;85.39;99357.78;4977361;28;20197;-74
2023/03/24 03:05:34;;;;;;;4.53;3.23;;;11.30;99.90;;;10.69;85.33;99354.91;4977001;28;20712;-74
2023/03/24 03:08:10;;;;;;;2.73;2.47;;;11.30;99.90;;;10.68;85.35;99344.41;4977322;28;20217;-74
2023/03/24 03:10:46;;;;;;;3.80;2.63;;;11.30;99.90;;;10.69;85.72;99343.38;4977239;28;20193;-74
2023/03/24 03:13:30;;;;;;;3.47;2.63;;;11.30;99.90;;;10.73;85.28;99336.59;4977124;28;20220;-73
2023/03/24 03:16:08;;;;;;;3.90;2.40;;;11.40;99.90;;;10.76;85.68;99332.69;4977084;28;20224;-73
2023/03/24 03:18:49;;;;;;;5.33;2.73;;;11.40;99.90;;;10.81;85.68;99319.56;4977046;28;20189;-73
2023/03/24 03:21:27;;;;;;;3.03;2.63;;;11.40;99.90;;;10.76;85.50;99317.47;4976738;28;20197;-73
2023/03/24 03:24:08;;;;;;;3.40;2.77;;;11.40;99.90;;;10.76;85.37;99316.63;4976441;28;20213;-73
2023/03/24 03:26:46;;;;;;;5.30;3.03;;;11.40;99.90;;;10.86;85.37;99317.94;4976790;28;20228;-73
2023/03/24 03:29:26;;;;;;;3.33;2.90;;;11.50;99.90;;;10.86;85.34;99319.78;4976866;28;20193;-73
2023/03/24 03:32:06;;;;;;;3.30;3.00;;;11.50;99.90;;;10.88;85.24;99321.28;4976735;28;20195;-73
2023/03/24 03:34:46;;;;;;;3.23;2.57;;;11.50;99.90;;;10.89;85.82;99311.41;4976302;28;20252;-73
2023/03/24 03:37:26;;;;;;;3.67;2.63;;;11.50;99.90;;;10.92;85.56;99311.84;4976675;28;20205;-73
2023/03/24 03:40:03;;;;;;;4.03;2.80;;;11.60;99.90;;;10.99;85.18;99309.19;4976261;28;20658;-73
2023/03/24 03:42:36;;;;;;;4.23;2.87;;;11.60;99.90;;;11.16;84.19;99294.44;4977115;28;20212;-73
2023/03/24 03:45:13;;;;;;;3.90;2.97;;;11.80;99.90;;;11.15;84.70;99290.09;4976341;28;20229;-72
2023/03/24 03:47:45;;;;;;;2.87;2.57;;;11.70;99.90;;;11.13;85.13;99286.78;4976381;28;20201;-73
2023/03/24 03:50:17;;;;;;;3.93;2.67;;;11.80;99.90;;;11.11;84.97;99283.47;4976089;28;20669;-73
2023/03/24 03:52:51;;;;;;;5.23;3.03;;;11.70;99.90;;;11.18;84.56;99284.34;4976424;28;20197;-73
2023/03/24 03:55:23;;;;;;;4.13;2.70;;;11.80;99.90;;;11.20;84.42;99284.97;4976357;28;20240;-74
2023/03/24 03:57:56;;;;;;;4.27;3.00;;;11.80;99.90;;;11.24;83.78;99277.34;4976015;28;20560;-74
2023/03/24 04:00:30;;;;;;;6.00;2.70;;;11.80;99.90;;;11.23;84.63;99276.56;4976270;28;20197;-74
2023/03/24 04:03:25;;;;;;;5.13;2.60;;;11.80;99.90;;;11.20;85.15;99266.22;4976242;28;20197;-74
2023/03/24 04:06:05;;;;;;;3.80;2.90;;;11.80;99.90;;;11.22;85.22;99260.66;4976130;28;20280;-74
2023/03/24 04:08:48;;;;;;;4.77;2.80;;;11.90;99.90;;;11.19;85.71;99249.34;4976175;28;20193;-72
2023/03/24 04:11:55;;;;;;;4.63;2.97;;;11.80;99.90;;;11.17;85.81;99245.19;4976049;28;20244;-73
2023/03/24 04:15:14;;;;;;;4.53;3.13;;;11.80;99.90;;;11.12;86.34;99236.94;4975879;28;20212;-73
2023/03/24 04:18:15;;;;;;;3.23;2.93;;;11.70;99.90;;;11.13;87.09;99250.09;4975612;28;20208;-73
2023/03/24 04:20:55;;;;;;;3.20;2.90;;;11.80;99.90;;;11.11;87.32;99252.19;4975628;28;20590;-73
2023/03/24 04:23:38;;;;;;;4.60;3.10;;;11.80;99.90;;;11.09;87.55;99238.16;4975547;28;20185;-73
2023/03/24 04:26:27;;;;;;;3.67;2.93;;;11.70;99.90;;;11.04;87.11;99239.78;4975434;28;20239;-73
2023/03/24 04:29:16;;;;;;;3.77;3.00;;;11.60;99.90;;;11.01;87.75;99234.81;4975432;28;20216;-73
2023/03/24 04:31:57;;;;;;;3.93;3.53;;;11.60;99.90;;;10.98;87.90;99224.50;4975454;28;20646;-73
2023/03/24 04:34:37;;;;;;;3.97;3.63;;;11.60;99.90;;;10.95;88.07;99214.19;4975469;28;20217;-74
2023/03/24 04:37:15;;;;;;;5.60;3.73;;;11.60;99.90;;;10.95;88.05;99216.88;4975517;28;20189;-74
2023/03/24 04:39:57;;;;;;;4.40;3.87;;;11.60;99.90;;;10.95;88.38;99224.91;4975535;28;20192;-74
2023/03/24 04:42:35;;;;;;;4.97;4.47;;;11.60;99.90;;;10.94;88.71;99217.91;4974444;28;20646;-73
2023/03/24 04:45:11;;;;;;;6.37;4.67;;;11.60;99.90;;;10.92;88.80;99222.63;4975322;28;20229;-73
2023/03/24 04:47:52;;;;;;;5.10;4.27;;;11.50;99.90;;;10.91;88.91;99213.78;4975072;28;20197;-73
2023/03/24 04:50:37;;;;;;;5.33;4.83;;;11.50;99.90;;;10.90;89.13;99211.28;4975413;28;20200;-73
2023/03/24 04:53:10;;;;;;;5.30;4.73;;;11.50;99.90;;;10.86;89.38;99205.50;4975372;28;20206;-73
2023/03/24 04:56:01;;;;;;;5.43;4.90;;;11.50;99.90;;;10.87;89.60;99200.97;4975213;28;20237;-73
2023/03/24 04:58:33;;;;;;;6.13;5.53;;;11.50;99.90;;;10.86;89.87;99196.63;4975204;28;20194;-74
2023/03/24 05:01:07;;;;;;;6.23;5.07;;;11.50;99.90;;;10.88;89.78;99197.28;4975145;28;20189;-74
2023/03/24 05:03:40;;;;;;;6.23;5.43;;;11.50;99.90;;;10.87;89.64;99192.94;4975177;28;20560;-73
2023/03/24 05:06:16;;;;;;;6.67;5.60;;;11.50;99.90;;;10.88;88.77;99179.38;4975061;28;20339;-73
2023/03/24 05:08:48;;;;;;;6.13;5.53;;;11.50;99.90;;;10.92;89.49;99187.84;4975144;28;20201;-74
2023/03/24 05:11:20;;;;;;;6.27;5.50;;;11.50;99.90;;;10.90;89.47;99179.16;4975111;28;20197;-73
2023/03/24 05:13:52;;;;;;;7.30;5.20;;;11.50;99.90;;;10.90;89.49;99179.16;4975002;28;20224;-73
2023/03/24 05:16:24;;;;;;;6.37;5.17;;;11.50;99.90;;;10.89;89.34;99177.53;4974930;28;20236;-73
2023/03/24 05:18:56;;;;;;;5.30;4.80;;;11.50;99.90;;;10.89;88.97;99174.84;4974651;28;20638;-73
2023/03/24 05:21:31;;;;;;;5.37;4.83;;;11.50;99.90;;;10.92;89.01;99177.13;4974678;28;20196;-73
2023/03/24 05:24:04;;;;;;;6.83;5.37;;;11.50;99.90;;;10.94;89.09;99164.34;4974933;28;20243;-73
2023/03/24 05:26:38;;;;;;;5.33;4.83;;;11.60;99.90;;;10.93;88.59;99162.69;4974724;28;20229;-73
2023/03/24 05:29:10;;;;;;;5.40;4.90;;;11.60;99.90;;;10.99;88.93;99156.56;4974786;28;20196;-73
2023/03/24 05:31:43;;;;;;;5.67;4.97;;;11.60;99.90;;;11.02;89.00;99156.16;4974818;28;20228;-73
2023/03/24 05:34:15;;;;;;;5.87;5.10;;;11.60;99.90;;;11.06;88.59;99158.19;4974713;28;20217;-73
2023/03/24 05:36:48;;;;;;;5.50;5.00;;;11.70;99.90;;;11.12;87.88;99157.41;4974796;28;20201;-72
2023/03/24 05:39:20;;;;;;;5.67;5.17;;;11.70;99.90;;;11.12;88.13;99153.91;4974855;28;20605;-72
2023/03/24 05:41:52;;;;;;;5.07;4.60;;;11.70;99.90;;;11.16;87.74;99163.19;4974720;28;20200;-73
2023/03/24 05:44:24;;;;;;;4.80;4.40;;;11.80;99.90;;;11.22;87.50;99151.66;4974655;28;20196;-73
2023/03/24 05:46:55;;;;;;;5.80;4.80;;;11.80;99.90;;;11.34;86.47;99149.19;4974711;28;20200;-73
2023/03/24 05:49:27;;;;;;;6.23;4.90;;;11.90;99.90;;;11.33;86.53;99153.75;4974786;28;20216;-74
2023/03/24 05:52:01;;;;;;;6.13;4.40;;;11.90;99.90;;;11.36;86.84;99156.03;4974673;28;20197;-73
2023/03/24 05:54:32;;;;;;;4.70;4.30;;;12.00;99.90;;;11.47;85.91;99147.34;4977570;28;20222;-73
2023/03/24 05:57:06;;;;;;;5.97;4.60;;;12.10;99.90;;;11.51;86.17;99143.25;4978270;28;20204;-73
2023/03/24 05:59:39;;;;;;;5.87;4.57;;;12.10;99.90;;;11.52;85.67;99147.59;4978443;28;20634;-73
2023/03/24 06:02:10;;;;;;;5.23;4.60;;;12.10;99.90;;;11.69;84.63;99154.19;4978465;28;20200;-73
2023/03/24 06:04:44;;;;;;;7.80;5.00;;;12.30;99.90;;;11.66;84.72;99164.50;4978366;28;20231;-73
2023/03/24 06:07:18;;;;;;;5.13;4.63;;;12.30;99.90;;;11.61;85.54;99157.06;4978387;28;20243;-73
2023/03/24 06:09:51;;;;;;;6.27;4.67;;;12.20;99.90;;;11.64;85.09;99150.50;4977957;28;20197;-74
2023/03/24 06:12:23;;;;;;;5.23;4.57;;;12.30;99.90;;;11.81;83.49;99161.66;4978298;28;20204;-73
2023/03/24 06:14:55;;;;;;;5.07;4.57;;;12.40;99.90;;;11.84;83.84;99166.59;4978128;28;20236;-73
2023/03/24 06:17:29;;;;;;;4.50;4.10;;;12.40;99.90;;;11.94;83.15;99167.84;4978156;28;20248;-73
2023/03/24 06:20:04;;;;;;;5.43;4.60;;;12.50;99.90;;;11.88;83.55;99167.84;4977837;28;20240;-73
2023/03/24 06:22:37;;;;;;;7.37;4.47;;;12.50;99.90;;;11.84;84.29;99166.59;4978070;28;20192;-73
2023/03/24 06:25:10;;;;;;;4.40;4.00;;;12.50;99.90;;;11.80;84.96;99176.09;4977967;28;20231;-74
2023/03/24 06:27:44;;;;;;;5.23;4.57;;;12.40;99.90;;;11.78;84.94;99172.78;4977699;28;20221;-74
2023/03/24 06:30:18;;;;;;;5.73;4.50;;;12.40;99.90;;;11.74;85.17;99182.28;4977737;28;20193;-73
2023/03/24 06:32:50;;;;;;;5.80;4.47;;;12.40;99.90;;;11.69;86.96;99180.16;4977964;28;20193;-73
2023/03/24 06:35:21;;;;;;;4.87;4.43;;;12.30;99.90;;;11.61;87.58;99191.91;4977396;28;20236;-73
2023/03/24 06:37:55;;;;;;;5.03;4.53;;;12.20;99.90;;;11.59;87.80;99191.31;4977766;28;20276;-73
2023/03/24 06:40:27;;;;;;;5.30;4.80;;;12.20;99.90;;;11.56;88.05;99181.00;4977782;28;20208;-73
2023/03/24 06:42:59;;;;;;;5.73;4.70;;;12.20;99.90;;;11.52;88.14;99190.47;4977717;28;20216;-73
2023/03/24 06:45:31;;;;;;;5.50;5.00;;;12.10;99.90;;;11.58;88.49;99186.13;4977291;28;20593;-73
2023/03/24 06:48:03;;;;;;;5.50;4.80;;;12.20;99.90;;;11.56;87.89;99198.91;4977645;28;20247;-73
2023/03/24 06:50:37;;;;;;;6.00;4.70;;;12.20;99.90;;;11.56;88.60;99213.16;4977570;28;20288;-73
2023/03/24 06:53:12;;;;;;;7.10;4.87;;;12.20;99.90;;;11.58;88.82;99231.69;4977499;28;20196;-73
2023/03/24 06:55:44;;;;;;;6.00;5.40;;;12.20;99.90;;;11.52;89.67;99238.72;4977382;28;20228;-74
2023/03/24 06:58:17;;;;;;;6.80;5.27;;;12.10;99.90;;;11.48;90.04;99256.22;4977456;28;20197;-73
2023/03/24 07:00:49;;;;;;;6.13;5.53;;;12.10;99.90;;;11.42;90.63;99273.09;4977094;28;20197;-74
2023/03/24 07:03:22;;;;;;;9.23;6.70;;;12.00;99.90;;;11.40;90.94;99261.78;4977062;28;20600;-73
2023/03/24 07:05:54;;;;;;;6.10;5.07;;;12.00;99.90;;;11.39;90.74;99262.78;4976282;28;20231;-74
2023/03/24 07:08:28;;;;;;;5.83;5.23;;;12.00;99.90;;;11.39;90.06;99264.63;4977889;28;20216;-74
2023/03/24 07:11:10;;;;;;;5.33;4.83;;;12.00;99.90;;;11.36;90.23;99275.75;4977304;28;20193;-74
2023/03/24 07:13:42;;;;;;;6.07;5.10;;;12.00;99.90;;;11.33;90.18;99277.00;4977151;28;20196;-74
2023/03/24 07:16:14;;;;;;;4.23;2.90;;;11.90;99.90;;;11.33;87.38;99271.63;4977011;28;20241;-74
2023/03/24 07:18:46;;;;;;;3.60;3.00;;;11.90;99.90;;;11.33;86.96;99281.53;4977103;28;20232;-74
2023/03/24 07:21:18;;;;;;;3.00;2.70;;;11.90;99.90;;;11.31;87.06;99276.34;4976794;28;20646;-74
2023/03/24 07:23:51;;;;;;;3.83;2.40;;;11.90;99.90;;;11.28;86.40;99284.78;4977071;28;20197;-74
2023/03/24 07:26:23;;;;;;;4.03;2.40;;;11.90;99.90;;;11.28;85.82;99282.13;4976928;28;20221;-74
2023/03/24 07:28:55;;;;;;;2.73;2.53;;;11.90;99.90;;;11.29;86.16;99291.00;4976549;28;20221;-73
2023/03/24 07:31:27;;;;;;;2.70;2.50;;;11.90;99.90;;;11.31;86.02;99294.28;4976904;28;20197;-73
2023/03/24 07:33:59;;;;;;;3.00;2.53;;;11.90;99.90;;;11.35;85.60;99303.56;4976905;28;20276;-73
2023/03/24 07:36:32;;;;;;;3.10;2.80;;;11.90;99.90;;;11.39;85.55;99299.47;4976577;28;20244;-74
2023/03/24 07:39:05;;;;;;;3.47;2.60;;;12.00;99.90;;;11.43;85.37;99298.88;4976785;28;20197;-74
2023/03/24 07:41:37;;;;;;;4.47;2.77;;;12.00;99.90;;;11.45;84.80;99312.91;4976642;28;20200;-74
2023/03/24 07:44:09;;;;;;;3.30;2.13;;;12.00;99.90;;;11.47;84.53;99302.78;4976335;28;20583;-74
2023/03/24 07:46:41;;;;;;;3.43;2.50;;;12.10;99.90;;;11.51;84.39;99316.63;4976562;28;20263;-74
2023/03/24 07:49:14;;;;;;;3.60;2.50;;;12.10;99.90;;;11.52;83.51;99318.28;4976553;28;20193;-74
2023/03/24 07:51:50;;;;;;;3.07;2.00;;;12.10;99.90;;;11.59;81.78;99319.97;4976465;28;20200;-74
2023/03/24 07:54:23;;;;;;;2.37;2.10;;;12.20;99.90;;;11.62;81.72;99335.63;4975960;28;20572;-74
2023/03/24 07:56:55;;;;;;;3.60;2.10;;;12.20;99.90;;;11.66;79.98;99339.56;4976238;28;20241;-74
2023/03/24 07:59:27;;;;;;;2.43;1.90;;;12.30;99.90;;;11.74;80.39;99337.78;4976203;28;20284;-74
2023/03/24 08:01:59;;;;;;;2.20;1.90;;;12.30;99.90;;;11.89;78.65;99354.50;4976237;28;20197;-74
2023/03/24 08:04:32;;;;;;;3.00;2.10;;;12.40;99.90;;;11.91;79.46;99366.72;4976070;28;20284;-74
2023/03/24 08:07:04;;;;;;;4.00;2.13;;;12.50;99.90;;;11.95;78.38;99362.56;4975720;28;20629;-73
2023/03/24 08:09:38;;;;;;;2.30;1.80;;;12.50;99.90;;;11.96;77.76;99366.09;4975674;28;20204;-73
2023/03/24 08:12:11;;;;;;;2.83;1.90;;;12.50;99.90;;;12.01;77.68;99377.06;4975682;28;20573;-73
2023/03/24 08:14:51;;;;;;;2.23;1.70;;;12.60;99.90;;;12.02;76.48;99384.88;4975553;28;20228;-74
2023/03/24 08:17:23;;;;;;;2.77;1.90;;;12.60;99.90;;;12.05;78.06;99387.19;4975500;28;20558;-74
2023/03/24 08:19:55;;;;;;;4.13;1.67;;;12.60;99.90;;;12.20;75.01;99374.41;4975533;28;20665;-74
2023/03/24 08:22:32;;;;;;;2.20;1.60;;;12.70;99.90;;;12.18;74.35;99379.16;4976597;28;20200;-74
2023/03/24 08:25:06;;;;;;;2.70;1.47;;;12.80;99.80;;;12.14;75.22;99377.06;4975679;28;20229;-74
2023/03/24 08:27:43;;;;;;;4.27;1.93;;;12.70;99.60;;;12.09;72.71;99388.41;4975436;28;20793;-73
2023/03/24 08:30:20;;;;;;;2.00;1.50;;;12.70;98.80;;;12.14;71.90;99398.53;4975745;28;20197;-73
2023/03/24 08:32:55;;;;;;;3.17;1.63;;;12.70;98.30;;;12.22;71.55;99381.44;4975738;28;20197;-73
2023/03/24 08:35:31;;;;;;;2.67;1.53;;;12.80;98.30;;;12.26;73.01;99364.69;4975478;28;20283;-74
2023/03/24 08:38:04;;;;;;;3.27;1.70;;;12.80;98.60;;;12.28;73.04;99377.94;4975549;28;20207;-74
2023/03/24 08:40:41;;;;;;;3.13;1.67;;;12.80;99.00;;;12.31;72.93;99386.41;4975517;28;20193;-74
2023/03/24 08:43:18;;;;;;;4.13;1.90;;;12.90;98.60;;;12.44;74.01;99383.72;4975501;28;20591;-74
2023/03/24 08:45:50;;;;;;;3.53;1.87;;;13.00;99.30;;;12.60;72.60;99390.56;4975234;28;20231;-74
2023/03/24 08:48:22;;;;;;;3.07;1.70;;;13.10;98.80;;;12.71;71.53;99393.44;4975377;28;20199;-73
2023/03/24 08:50:54;;;;;;;2.37;1.70;;;13.30;98.00;;;12.68;68.87;99395.72;4975010;28;20668;-73
2023/03/24 08:53:26;;;;;;;3.63;1.47;;;13.20;97.00;;;12.48;66.35;99411.81;4975217;28;20204;-74
2023/03/24 08:55:59;;;;;;;1.77;1.33;;;13.10;95.60;;;12.45;68.49;99417.59;4974800;28;20233;-74
2023/03/24 08:58:31;;;;;;;4.00;1.77;;;13.00;96.00;;;12.35;66.19;99422.53;4974864;28;20638;-74
2023/03/24 09:01:03;;;;;;;2.40;1.50;;;12.90;95.40;;;12.28;66.32;99421.69;4975108;28;20193;-74
2023/03/24 09:03:38;;;;;;;3.40;1.70;;;12.90;95.80;;;12.31;68.36;99434.69;4974830;28;20673;-74
2023/03/24 09:06:11;;;;;;;3.20;1.67;;;12.90;96.10;;;12.33;66.76;99440.69;4974998;28;20230;-74
2023/03/24 09:08:43;;;;;;;3.37;1.50;;;12.90;95.30;;;12.43;67.19;99441.13;4975122;28;20228;-74
2023/03/24 09:11:22;;;;;;;3.23;1.33;;;13.00;95.90;;;12.53;67.33;99446.94;4975086;28;20197;-74
2023/03/24 09:13:55;;;;;;;3.90;1.53;;;13.10;95.60;;;12.48;65.99;99462.81;4974829;28;20196;-75
2023/03/24 09:16:27;;;;;;;2.87;1.50;;;13.10;95.00;;;12.56;65.72;99459.13;4974892;28;20229;-75
2023/03/24 09:18:59;;;;;;;3.30;1.67;;;13.10;95.20;;;12.64;66.26;99440.94;4974722;28;20194;-75
2023/03/24 09:21:31;;;;;;;3.90;2.00;;;13.20;95.10;;;12.69;66.53;99446.53;4974970;28;20204;-75
2023/03/24 09:24:04;;;;;;;6.00;1.87;;;13.30;95.20;;;12.70;67.81;99458.13;4974894;28;20197;-75
2023/03/24 09:26:37;;;;;;;5.97;1.90;;;13.30;95.50;;;12.66;65.37;99465.75;4974684;28;20239;-75
2023/03/24 09:29:11;;;;;;;7.03;1.90;;;13.20;94.40;;;12.58;63.36;99465.94;4974421;28;20193;-75
2023/03/24 09:31:43;;;;;;;5.50;2.00;;;13.20;94.30;;;12.52;63.25;99465.94;4974804;28;20201;-75
2023/03/24 09:34:15;;;;;;;5.80;2.00;;;13.10;93.60;;;12.39;60.29;99471.28;4974578;28;20284;-75
2023/03/24 09:36:46;;;;;;;6.20;2.07;;;13.00;92.80;;;12.35;61.29;99470.00;4974279;28;20577;-75
2023/03/24 09:39:18;;;;;;;3.30;1.90;;;12.90;93.20;;;12.28;61.25;99474.53;4974743;28;20243;-75
2023/03/24 09:41:52;;;;;;;10.27;2.80;;;12.90;92.80;;;12.27;62.23;99467.50;4974386;28;20189;-75
2023/03/24 09:44:31;;;;;;;6.07;2.50;;;12.80;93.30;;;12.22;62.73;99460.06;4974640;28;20212;-75
2023/03/24 09:47:19;;;;;;;8.43;2.50;;;12.80;93.10;;;12.23;63.59;99461.72;4974376;28;20204;-75
2023/03/24 09:49:55;;;;;;;11.83;2.93;;;12.80;93.60;;;12.32;63.57;99471.25;4974652;28;20251;-75
2023/03/24 09:52:35;;;;;;;6.37;2.53;;;12.80;94.10;;;12.40;64.32;99480.94;4974599;28;20200;-75
2023/03/24 09:55:13;;;;;;;6.10;2.50;;;12.90;94.10;;;12.37;63.36;99489.41;4974793;28;20237;-75
2023/03/24 09:57:50;;;;;;;7.87;2.87;;;12.90;93.90;;;12.43;63.73;99483.25;4974491;28;20213;-75
2023/03/24 10:00:28;;;;;;;8.37;2.53;;;13.00;94.10;;;12.54;65.31;99479.97;4974545;28;20196;-75
2023/03/24 10:03:13;;;;;;;6.07;2.97;;;13.10;94.50;;;12.63;64.67;99479.59;4974281;28;20191;-75
2023/03/24 10:05:54;;;;;;;7.90;2.77;;;13.20;94.40;;;12.80;64.27;99489.94;4974431;28;20236;-75
2023/03/24 10:08:35;;;;;;;6.37;2.33;;;13.30;94.00;;;12.92;63.75;99478.38;4974451;28;20189;-74
2023/03/24 10:11:16;;;;;;;9.40;2.70;;;13.50;94.00;;;13.08;63.80;99477.94;4974231;28;20651;-74
2023/03/24 10:14:12;;;;;;;8.67;2.80;;;13.60;93.50;;;13.18;61.58;99474.91;4974466;28;20189;-74
2023/03/24 10:16:59;;;;;;;8.93;2.70;;;13.70;93.10;;;13.30;62.77;99470.53;4974291;28;20240;-75
2023/03/24 10:19:45;;;;;;;6.43;3.00;;;13.90;93.50;;;13.41;63.66;99487.91;4974450;28;20276;-75
2023/03/24 10:22:29;;;;;;;7.03;2.43;;;14.00;93.80;;;13.57;62.69;99493.66;4974405;28;20538;-73
2023/03/24 10:25:14;;;;;;;9.40;2.70;;;14.00;93.60;;;13.49;61.38;99485.78;4974326;28;20248;-74
2023/03/24 10:27:53;;;;;;;7.43;3.33;;;14.00;92.30;;;13.53;62.32;99489.72;4973977;28;20217;-74
2023/03/24 10:30:31;;;;;;;7.33;2.80;;;14.10;92.90;;;13.24;61.87;99487.50;4974251;28;20189;-74
2023/03/24 10:33:03;;;;;;;7.90;3.33;;;13.80;92.50;;;13.37;62.25;99479.41;4973920;28;20194;-74
2023/03/24 10:35:42;;;;;;;12.80;2.80;;;13.90;93.30;;;13.24;60.61;99487.50;4974105;28;20315;-74
2023/03/24 10:38:22;;;;;;;5.07;2.20;;;13.80;92.00;;;13.28;59.75;99494.13;4973840;28;20692;-74
2023/03/24 10:40:55;;;;;;;10.20;5.10;;;13.80;91.30;;;13.23;58.70;99499.28;4976074;28;20197;-77
2023/03/24 10:43:29;;;;;;;8.00;2.70;;;13.80;91.30;;;13.39;59.41;99500.72;4977502;28;20193;-78
2023/03/24 10:46:03;;;;;;;10.00;2.70;;;13.90;91.30;;;13.45;59.35;99511.47;4977362;28;20599;-78
2023/03/24 10:48:44;;;;;;;8.33;2.97;;;14.00;91.30;;;13.44;59.36;99514.34;4977623;28;20283;-78
2023/03/24 10:51:18;;;;;;;10.10;3.30;;;13.90;91.20;;;13.52;60.42;99506.91;4977364;28;20193;-78
2023/03/24 10:54:09;;;;;;;7.20;2.83;;;14.00;91.50;;;13.42;59.12;99503.84;4977277;28;20558;-78
2023/03/24 10:56:45;;;;;;;7.10;2.97;;;14.00;91.40;;;13.50;60.04;99503.59;4977374;28;20243;-77
2023/03/24 10:59:26;;;;;;;8.63;3.00;;;14.00;91.70;;;13.52;60.07;99509.59;4978094;28;20201;-77
2023/03/24 11:02:17;;;;;;;8.33;3.03;;;14.10;91.80;;;13.45;60.08;99511.47;4977428;28;20263;-77